CheckWX is a tool to help pilots better visualize weather data.  It is not intended as a substitute for an official pre-flight weather briefing.

16:11:41 UTC

KSLI METAR
Los Alamitos AAF Airport
Los Alamitos, California, USA
Current

14 mins ago

KSLI 171558Z 10006KT 7SM BKN015 19/15 A2983 RMK AO2A SLP104 WND DATA ESTMD T01910146
Observed
Oct-17 @ 15:58 UTC
Wind
  • 100° at 6 KTS
Visibility
7 SM
Flight Rules
MVFR
Cloud Levels
  • Broken at 1,500' AGL
Temperature
19°C / 66°F
Dewpoint
15°C / 59°F
Humidity
78%
Altimeter
29.83" Hg
Pressure
1010.12 hPa
Previous

44 mins ago

KSLI 171528Z 10004KT 7SM BKN015 19/15 A2982 RMK AO2A SLP101 WND DATA ESTMD
Observed
Oct-17 @ 15:28 UTC
Wind
  • 100° at 4 KTS
Visibility
7 SM
Flight Rules
MVFR
Cloud Levels
  • Broken at 1,500' AGL
Temperature
19°C / 66°F
Dewpoint
15°C / 59°F
Humidity
78%
Altimeter
29.82" Hg
Pressure
1009.82 hPa
Previous

1 hour ago

KSLI 171458Z 09004KT 6SM BR BKN014 18/15 A2982 RMK AO2A SLP101 WND DATA ESTMD T01760150 52010
Observed
Oct-17 @ 14:58 UTC
Wind
  • 090° at 4 KTS
Visibility
6 SM
Flight Rules
MVFR
Conditions
Mist
Cloud Levels
  • Broken at 1,400' AGL
Temperature
18°C / 64°F
Dewpoint
15°C / 59°F
Humidity
83%
Altimeter
29.82" Hg
Pressure
1009.82 hPa